Startpagina
METAR-TAF:

METAR-TAF

Vliegvelden :

Maastricht Aachen Airport

Maastricht Aken, Nederland

breedte: 50-55N, lengte: 005-47E, hoogte: 114 m

Actueel weer

Dit bericht is 9 minuten geleden gemaakt, om 19:55 UTC
Wind 5 kt uit het zuidzuidoosten
Temperatuur 15°C
Vochtigheid 67%
Druk 1015 hPa
Zicht 10 km of meer

METAR: EHBK 151955Z AUTO 16005KT 9999 NCD 15/09 Q1015 NOSIG

Tijdstip: 22:04 (20:04 UTC)

Verwachting

Dit bericht is 3 uur en het 12 minuten geleden gemaakt, om 16:52 UTC
Verwachting geldig van 15 om 18 UTC tot 16 om 24 UTC
Wind 3 kt uit variabele richting
Zicht 10 km of meer
geen wolken onder 1500 m en geen cumulonimbus

TAF: EHBK 151652Z 1518/1624 VRB03KT CAVOK

Waarnemingen en weersverwachtingen van meer dan 4000 vliegvelden (METAR en TAF).

De beschikbare stations zijn de gele en rode punten op de kaart.

Ga met uw muis naar het station om de naam te zien.

Klik dan om waarnemingen en weersverwachtingen te zien.

kaart wijzigen: klik op de groene knoppen met een zwart kruis om in te zoomen, op de groene knop met een streepje om uit te zoomen of op de groene pijlen voor aangrenzende kaarten.


METAR-TAF: